createdAt,value
2022-07-29T00:03:44.424Z,87.33
2022-07-29T00:08:46.451Z,87.02
2022-07-29T00:13:51.150Z,86.91
2022-07-29T00:18:53.484Z,87.00
2022-07-29T00:23:55.664Z,87.12
2022-07-29T00:29:32.032Z,87.00
2022-07-29T00:34:40.790Z,86.96
2022-07-29T00:39:42.978Z,87.08
2022-07-29T00:44:45.363Z,87.22
2022-07-29T00:49:47.958Z,87.36
2022-07-29T00:54:49.935Z,87.74
2022-07-29T00:59:51.812Z,88.07
2022-07-29T01:04:54.407Z,88.61
2022-07-29T01:09:57.615Z,88.47
2022-07-29T01:15:01.484Z,88.37
2022-07-29T01:20:16.214Z,88.39
2022-07-29T01:25:51.626Z,88.19
2022-07-29T01:31:01.150Z,88.37
2022-07-29T01:36:13.969Z,88.95
2022-07-29T01:41:20.452Z,88.90
2022-07-29T01:46:32.717Z,88.64
2022-07-29T01:51:44.277Z,88.60
2022-07-29T01:56:49.676Z,88.66
2022-07-29T02:01:54.772Z,88.61
2022-07-29T02:07:04.552Z,88.52
2022-07-29T02:12:08.064Z,88.46
2022-07-29T02:17:12.752Z,89.07
2022-07-29T02:22:17.266Z,90.26
2022-07-29T02:27:21.376Z,90.52
2022-07-29T02:32:26.681Z,90.98
2022-07-29T02:37:31.786Z,91.18
2022-07-29T02:42:35.377Z,90.95
2022-07-29T02:47:42.383Z,90.86
2022-07-29T02:52:58.411Z,90.97
2022-07-29T02:58:29.880Z,91.11
2022-07-29T03:03:37.903Z,91.23
2022-07-29T03:08:41.110Z,91.42
2022-07-29T03:13:43.094Z,91.37
2022-07-29T03:18:45.171Z,91.28
2022-07-29T03:23:47.150Z,91.22
2022-07-29T03:28:49.232Z,90.81
2022-07-29T03:33:51.620Z,90.40
2022-07-29T03:38:54.114Z,90.23
2022-07-29T03:43:57.422Z,90.09
2022-07-29T03:49:01.873Z,89.74
2022-07-29T03:54:09.508Z,89.26
2022-07-29T03:59:13.397Z,89.33
2022-07-29T04:09:36.196Z,88.12
2022-07-29T04:14:38.175Z,86.97
2022-07-29T04:19:40.051Z,86.27
2022-07-29T04:24:44.435Z,84.86
2022-07-29T04:29:56.736Z,84.88
2022-07-29T04:34:59.199Z,82.91
2022-07-29T04:40:01.283Z,79.28
2022-07-29T04:45:04.295Z,76.14
2022-07-29T04:50:10.610Z,73.12
2022-07-29T04:55:12.646Z,64.13
2022-07-29T05:00:14.832Z,56.24
2022-07-29T05:05:16.709Z,52.39
2022-07-29T05:10:18.587Z,48.67
2022-07-29T05:15:20.665Z,47.91
2022-07-29T05:20:26.885Z,47.04
2022-07-29T05:25:44.315Z,48.74
2022-07-29T05:30:46.941Z,45.94
2022-07-29T05:35:48.961Z,42.11
2022-07-29T05:40:51.249Z,41.96
2022-07-29T05:45:53.305Z,43.41
2022-07-29T05:50:55.589Z,41.85
2022-07-29T05:55:57.697Z,40.57
2022-07-29T06:01:00.070Z,38.74
2022-07-29T06:06:02.067Z,38.09
2022-07-29T06:11:05.479Z,38.14
2022-07-29T06:16:07.612Z,38.12
2022-07-29T06:21:10.671Z,37.84
2022-07-29T06:26:12.649Z,38.41
2022-07-29T06:31:14.969Z,39.71
2022-07-29T06:36:17.019Z,39.98
2022-07-29T06:41:20.223Z,39.42
2022-07-29T06:46:23.603Z,37.43
2022-07-29T06:51:26.249Z,37.70
2022-07-29T06:56:30.993Z,37.86
2022-07-29T07:01:33.455Z,37.22
2022-07-29T07:06:36.468Z,36.16
2022-07-29T07:11:38.447Z,35.18
2022-07-29T07:16:40.508Z,33.74
2022-07-29T07:21:42.509Z,32.39
2022-07-29T07:26:45.000Z,31.79
2022-07-29T07:31:47.175Z,31.13
2022-07-29T07:36:49.066Z,28.83
2022-07-29T07:41:53.042Z,27.69
2022-07-29T07:46:55.377Z,26.12
2022-07-29T07:51:57.257Z,26.26
2022-07-29T07:56:59.080Z,25.42
2022-07-29T08:02:01.818Z,27.17
2022-07-29T08:07:05.335Z,27.14
2022-07-29T08:12:08.139Z,27.98
2022-07-29T08:17:10.121Z,27.04
2022-07-29T08:22:12.000Z,27.14
2022-07-29T08:27:40.691Z,25.24
2022-07-29T08:32:53.283Z,25.89
2022-07-29T08:37:57.358Z,25.96
2022-07-29T08:43:06.462Z,26.24
2022-07-29T08:48:08.586Z,27.84
2022-07-29T08:53:16.169Z,28.01
2022-07-29T08:58:21.615Z,27.68
2022-07-29T09:03:32.143Z,27.87
2022-07-29T09:08:34.630Z,26.49
2022-07-29T09:13:37.068Z,26.41
2022-07-29T09:18:45.297Z,27.53
2022-07-29T09:24:07.441Z,28.99
2022-07-29T09:29:18.087Z,28.27
2022-07-29T09:34:38.133Z,28.19
2022-07-29T09:39:47.406Z,28.13
2022-07-29T09:44:51.372Z,29.16
2022-07-29T09:50:01.103Z,30.23
2022-07-29T09:55:18.278Z,30.61
2022-07-29T10:00:23.552Z,32.72
2022-07-29T10:05:36.827Z,33.05
2022-07-29T10:10:42.531Z,34.38
2022-07-29T10:15:46.929Z,35.39
2022-07-29T10:20:49.404Z,35.17
2022-07-29T10:25:51.436Z,35.99
2022-07-29T10:30:59.479Z,36.87
2022-07-29T10:36:09.369Z,36.47
2022-07-29T10:47:02.896Z,35.88
2022-07-29T10:52:08.573Z,36.14
2022-07-29T10:57:16.836Z,36.64
2022-07-29T11:02:41.480Z,36.07
2022-07-29T11:08:21.075Z,35.78
2022-07-29T11:13:43.873Z,35.92
2022-07-29T11:19:11.048Z,35.37
2022-07-29T11:24:14.771Z,36.97
2022-07-29T11:29:23.037Z,37.04
2022-07-29T11:34:29.986Z,37.34
2022-07-29T11:44:58.791Z,37.03
2022-07-29T11:50:13.367Z,37.73
2022-07-29T11:55:23.370Z,37.48
2022-07-29T12:00:38.503Z,37.60
2022-07-29T12:05:48.150Z,38.00
2022-07-29T12:10:53.884Z,38.40
2022-07-29T12:16:00.004Z,38.13
2022-07-29T12:21:04.293Z,38.01
2022-07-29T12:26:10.552Z,38.15
2022-07-29T12:31:41.847Z,39.01
2022-07-29T12:36:39.212Z,38.76
2022-07-29T12:41:41.194Z,38.58
2022-07-29T12:46:43.438Z,38.36
2022-07-29T12:51:46.075Z,38.22
2022-07-29T12:56:59.766Z,37.43
2022-07-29T13:02:02.091Z,37.72
2022-07-29T13:07:07.779Z,37.08
2022-07-29T13:12:11.809Z,37.72
2022-07-29T13:17:24.125Z,37.81
2022-07-29T13:22:26.416Z,37.69
2022-07-29T13:27:32.674Z,38.51
2022-07-29T13:32:36.882Z,38.56
2022-07-29T13:37:39.151Z,38.19
2022-07-29T13:42:42.116Z,38.65
2022-07-29T13:47:49.240Z,37.37
2022-07-29T13:52:52.223Z,37.37
2022-07-29T13:57:54.316Z,37.36
2022-07-29T14:02:56.590Z,37.81
2022-07-29T14:07:58.577Z,37.50
2022-07-29T14:13:00.651Z,37.38
2022-07-29T14:18:03.139Z,38.41
2022-07-29T14:23:05.324Z,39.12
2022-07-29T14:28:08.021Z,39.01
2022-07-29T14:33:10.296Z,39.21
2022-07-29T14:38:13.019Z,38.94
2022-07-29T14:43:15.398Z,39.02
2022-07-29T14:48:17.371Z,38.24
2022-07-29T14:53:19.562Z,38.41
2022-07-29T14:58:23.175Z,38.42
2022-07-29T15:03:25.107Z,38.49
2022-07-29T15:08:28.975Z,38.68
2022-07-29T15:13:30.955Z,39.06
2022-07-29T15:18:32.832Z,39.47
2022-07-29T15:23:39.316Z,39.86
2022-07-29T15:28:41.503Z,39.83
2022-07-29T15:33:43.380Z,39.90
2022-07-29T15:38:45.563Z,40.18
2022-07-29T15:43:48.362Z,40.52
2022-07-29T15:48:50.400Z,40.60
2022-07-29T15:53:53.349Z,40.93
2022-07-29T15:58:55.882Z,41.23
2022-07-29T16:03:58.596Z,41.55
2022-07-29T16:09:00.715Z,41.02
2022-07-29T16:14:03.005Z,41.19
2022-07-29T16:19:05.699Z,41.31
2022-07-29T16:24:08.025Z,41.15
2022-07-29T16:29:10.067Z,40.92
2022-07-29T16:34:12.150Z,40.95
2022-07-29T16:39:14.437Z,41.05
2022-07-29T16:44:16.417Z,41.45
2022-07-29T16:49:19.953Z,41.47
2022-07-29T16:54:22.325Z,41.83
2022-07-29T16:59:24.303Z,42.66
2022-07-29T17:04:27.098Z,43.16
2022-07-29T17:09:29.077Z,43.80
2022-07-29T17:14:31.312Z,44.28
2022-07-29T17:19:35.761Z,43.73
2022-07-29T17:24:38.387Z,43.90
2022-07-29T17:29:41.297Z,44.51
2022-07-29T17:34:43.378Z,45.22
2022-07-29T17:39:45.974Z,45.42
2022-07-29T17:44:47.747Z,45.97
2022-07-29T17:49:49.669Z,46.48
2022-07-29T17:54:51.715Z,46.81
2022-07-29T17:59:53.684Z,47.04
2022-07-29T18:04:56.725Z,48.20
2022-07-29T18:10:00.736Z,48.54
2022-07-29T18:15:07.305Z,49.58
2022-07-29T18:20:11.434Z,50.12
2022-07-29T18:25:13.417Z,50.73
2022-07-29T18:30:16.117Z,50.41
2022-07-29T18:35:18.499Z,50.72
2022-07-29T18:40:25.303Z,51.48
2022-07-29T18:45:29.623Z,51.81
2022-07-29T18:50:36.119Z,52.54
2022-07-29T18:55:39.288Z,53.09
2022-07-29T19:00:41.809Z,53.26
2022-07-29T19:05:45.120Z,54.01
2022-07-29T19:10:47.417Z,53.92
2022-07-29T19:15:51.418Z,55.37
2022-07-29T19:20:54.036Z,56.92
2022-07-29T19:25:56.929Z,57.68
2022-07-29T19:30:59.289Z,60.25
2022-07-29T19:36:03.347Z,62.21
2022-07-29T19:41:06.317Z,62.41
2022-07-29T19:46:08.789Z,63.53
2022-07-29T19:51:11.341Z,64.08
2022-07-29T19:56:15.176Z,64.48
2022-07-29T20:01:18.010Z,64.86
2022-07-29T20:06:20.998Z,64.81
2022-07-29T20:11:23.349Z,65.19
2022-07-29T20:16:25.685Z,65.04
2022-07-29T20:21:29.179Z,65.38
2022-07-29T20:26:33.079Z,66.24
2022-07-29T20:31:39.760Z,65.87
2022-07-29T20:36:42.777Z,66.90
2022-07-29T20:41:52.844Z,67.11
2022-07-29T20:46:55.547Z,67.78
2022-07-29T20:51:59.356Z,68.15
2022-07-29T20:57:01.765Z,68.74
2022-07-29T21:02:04.748Z,69.40
2022-07-29T21:07:06.930Z,69.60
2022-07-29T21:12:10.760Z,70.18
2022-07-29T21:17:13.861Z,70.73
2022-07-29T21:22:15.740Z,71.41
2022-07-29T21:27:38.241Z,71.46
2022-07-29T21:32:40.649Z,71.67
2022-07-29T21:37:42.984Z,72.21
2022-07-29T21:42:45.546Z,72.89
2022-07-29T21:47:47.754Z,73.32
2022-07-29T21:52:49.833Z,74.34
2022-07-29T21:57:53.042Z,74.25
2022-07-29T22:02:55.269Z,75.14
2022-07-29T22:07:58.442Z,75.08
2022-07-29T22:13:02.666Z,75.31
2022-07-29T22:18:04.747Z,76.23
2022-07-29T22:23:06.727Z,76.23
2022-07-29T22:28:08.711Z,76.41
2022-07-29T22:33:10.994Z,75.92
2022-07-29T22:38:20.283Z,76.12
2022-07-29T22:43:22.940Z,76.21
2022-07-29T22:48:25.130Z,76.30
2022-07-29T22:53:27.001Z,76.32
2022-07-29T22:58:28.985Z,76.53
2022-07-29T23:03:30.991Z,76.14
2022-07-29T23:08:32.947Z,76.53
2022-07-29T23:13:34.919Z,76.78
2022-07-29T23:18:39.357Z,76.75
2022-07-29T23:23:41.334Z,76.66
2022-07-29T23:28:45.054Z,77.23
2022-07-29T23:33:46.932Z,77.63
2022-07-29T23:38:49.014Z,77.60
2022-07-29T23:43:51.300Z,78.07
2022-07-29T23:48:53.423Z,78.03
2022-07-29T23:53:55.773Z,78.19
2022-07-29T23:58:57.751Z,78.19
